METAR Data
IDs: Format: Raw Decoded Include TAF

Data at: 1350 UTC 26 Feb 2021

ENBR 261320Z 36004KT 320V030 8000 -SHRA FEW002 SCT006 BKN008 07/06 Q1027 TEMPO SHRA SCT008 BKN014 RMK WIND 1200FT 29008KT